大阪空港の過去48時間の天気

大阪空港 (Osaka/Intl)

現在時刻: 1/23 14:58 JST (1/23 05:58 UTC) 以下の時間は現地時間です。

過去48時間のMETAR気象情報
時間 風向 風速(m/s) 視程 気温(℃) 湿度(%) 気圧(hPa) 天気現象
23 14:00 西 4 10km以上 7 45 1011 弱いしゅう雨
23 13:00 西北西 7 10km以上 8 42 1010 弱いしゅう雨
23 12:00 西北西 7 10km以上 8 53 1010 弱いしゅう雨
23 11:00 西 5 10km以上 9 50 1011
23 10:00 西北西 4 10km以上 8 66 1011
23 09:00 不定 1 10km以上 - - -
23 08:00 不定 1 10km以上 5 81 1010 弱いしゅう雨
23 07:00 不定 1 10km以上 5 81 1010
23 06:00 不定 1 10km以上 3 87 1010
23 05:00 北西 2 10km以上 3 93 1010
22 20:00 北西 2 10km以上 3 87 1012
22 19:00 北西 2 10km以上 3 87 1012
22 18:00 北北西 4 10km以上 3 87 1011 弱い雨
22 17:00 北西 3 10km以上 3 87 1011 弱い雨
22 16:00 北北西 4 8,000m 3 87 1010 弱い雨
22 15:00 2 5,000m 2 93 1010 弱い雨 もや
22 14:00 4 7,000m 3 81 1011 弱いしゅう雨 もや
22 13:00 4 10km以上 6 57 1012 弱いしゅう雨
22 12:00 北北東 2 10km以上 6 57 1013 周辺でしゅう雨
22 11:00 北東 4 10km以上 5 65 1015
22 10:00 4 10km以上 5 65 1016
22 09:00 東北東 4 10km以上 5 65 1016
22 08:00 3 10km以上 4 70 1017
22 07:00 北西 2 10km以上 3 75 1017
22 06:00 北西 3 10km以上 3 75 1018
22 05:00 北西 3 10km以上 3 75 1018
21 20:00 6 10km以上 7 53 1021
21 19:00 5 10km以上 8 53 1021
21 18:00 北北西 6 10km以上 8 49 1020
21 17:00 北北西 5 10km以上 9 50 1019
21 16:28 7 10km以上 10 43 1019
21 16:00 不定 2 10km以上 10 50 1019
21 15:00 南西 4 10km以上 10 46 1018
RJOO 230500Z 27008G18KT 220V340 9999 -SHRA FEW025 BKN045 07/M04 Q1011 RMK 1CU025 5CU045 A2986 VERY ROUGH AIR OBS AT 0437Z ON SHORT FNA RWY32L 100FT IN DES B738
RJOO 230400Z 30013G26KT 260V330 9999 -SHRA FEW025 BKN045 08/M04 Q1010 RMK 1CU025 5CU045 A2985
RJOO 230300Z 30013KT 9999 -SHRA FEW025 SCT040 08/M01 Q1010 RMK 1CU025 4CU040 A2984
RJOO 230200Z 28010G23KT 240V330 9999 FEW025 SCT040 09/M01 Q1011 RMK 1CU025 3CU040 A2985
RJOO 230100Z 29007KT 220V330 9999 FEW020 SCT035 08/02 Q1011 RMK 1CU020 3CU035 A2987
RJOO 230000Z VRB02KT 9999 FEW015 SCT030 ///// Q//// RMK 2CU015 4CU030 A//// MOD TURB OBS AT 2332Z KAINA BTN 11000FT AND 10000FT IN DES B738
RJOO 222300Z VRB01KT 9999 -SHRA FEW008 SCT015 BKN030 05/02 Q1010 RMK 1ST008 3CU015 5CU030 A2985
RJOO 222200Z VRB02KT 9999 FEW008 SCT015 BKN030 05/02 Q1010 RMK 1ST008 3CU015 5CU030 A2985
RJOO 222100Z VRB01KT 9999 FEW008 SCT015 BKN040 03/01 Q1010 RMK 1ST008 4CU015 6CU040 A2985
RJOO 222000Z 32003KT 9999 FEW008 BKN015 03/02 Q1010 RMK 1ST008 5CU015 A2984
RJOO 221100Z 31004KT 9999 FEW005 SCT015 BKN030 03/01 Q1012 RMK 1ST005 3CU015 5CU030 A2990
RJOO 221000Z 31003KT 250V330 9999 FEW005 SCT015 BKN030 03/01 Q1012 RMK 1ST005 3CU015 6CU030 A2988
RJOO 220900Z 33007KT 9999 -RA FEW005 SCT010 BKN020 03/01 Q1011 RMK 1ST005 3CU010 6CU020 A2988
RJOO 220800Z 32006KT 9999 -RA FEW005 SCT010 BKN020 03/01 Q1011 RMK 1ST005 3CU010 6CU020 A2986
RJOO 220700Z 34008KT 8000 -RA FEW005 SCT010 BKN015 03/01 Q1010 RMK 1ST005 3CU010 6CU015 A2984 MOD TURB OBS AT 0642Z 25NM E RJOO BTN 12000FT AND 16000FT IN CMB B738
RJOO 220600Z 36004KT 330V040 5000 -RA BR FEW002 SCT007 BKN020 02/01 Q1010 RMK 1ST002 4ST007 6CU020 A2983
RJOO 220500Z 08007KT 7000 -SHRA BR FEW003 SCT010 BKN015 03/00 Q1011 RMK 1ST003 3ST010 6CU015 A2987
RJOO 220400Z 10008KT 060V140 9999 -SHRA FEW005 SCT015 BKN025 06/M02 Q1012 RMK 1ST005 3CU015 6CU025 A2991 MOD TURB OBS AT 0345Z MUGIE 19000FT B788
RJOO 220300Z 03004KT 010V070 9999 VCSH FEW035 SCT045 BKN050 06/M02 Q1013 RMK 1CU035 3CU045 6SC050 A2993
RJOO 220200Z 04007KT 9999 FEW030 BKN070 BKN080 05/M01 Q1015 RMK 1CU030 5AC070 6AC080 A2999
RJOO 220100Z 08007KT 9999 FEW030 SCT080 BKN090 05/M01 Q1016 RMK 1CU030 4AC080 6AC090 A3003
RJOO 220000Z 06008KT 9999 FEW030 SCT080 BKN090 05/M01 Q1016 RMK 1CU030 4AC080 6AC090 A3003
RJOO 212300Z 10005KT 060V140 9999 FEW040 SCT090 BKN110 04/M01 Q1017 RMK 1CU040 4AC090 6AC110 A3003
RJOO 212200Z 31003KT 280V340 9999 FEW040 BKN120 BKN140 03/M01 Q1017 RMK 1CU040 5AC120 6AC140 A3004
RJOO 212100Z 32005KT 9999 FEW040 BKN150 03/M01 Q1018 RMK 1CU040 5AC150 A3008
RJOO 212000Z 32005KT 9999 FEW040 BKN160 03/M01 Q1018 RMK 1CU040 5AC160 A3009
RJOO 211100Z 35011KT 9999 FEW030 BKN/// 07/M02 Q1021
RJOO 211000Z 35009KT 9999 FEW030 BKN/// 08/M01 Q1021 RMK 1CU030 A3016
RJOO 210900Z 34012KT 9999 FEW030 BKN/// 08/M02 Q1020 RMK 1CU030 A3013
RJOO 210800Z 34009KT 9999 FEW030 SCT050 BKN/// 09/M01 Q1019 RMK 1CU030 3SC050 A3011
RJOO 210728Z 35013KT 9999 FEW030 SCT050 10/M02 Q1019 RMK 1CU030 4SC050 A3010
RJOO 210700Z VRB03KT 9999 FEW030 BKN050 10/00 Q1019 RMK 1CU030 6SC050 A3009 LGT TO MOD TURB OBS AT 0645Z 10NM N OHDAI BTN 16000FT AND 13000FT IN DES E190
RJOO 210600Z 23007KT 190V250 9999 FEW030 BKN050 10/M01 Q1018 RMK 1CU030 6SC050 A3007